sensor_id;sensor_type;location;lat;lon;timestamp;P1;durP1;ratioP1;P2;durP2;ratioP2
38264;SDS011;24062;47.480;8.768;2023-05-07T00:00:41;2.93;;;2.40;;
38264;SDS011;24062;47.480;8.768;2023-05-07T00:03:08;3.03;;;2.20;;
38264;SDS011;24062;47.480;8.768;2023-05-07T00:05:36;2.83;;;2.43;;
38264;SDS011;24062;47.480;8.768;2023-05-07T00:08:04;2.40;;;2.20;;
38264;SDS011;24062;47.480;8.768;2023-05-07T00:10:32;4.67;;;2.43;;
38264;SDS011;24062;47.480;8.768;2023-05-07T00:12:59;2.60;;;2.27;;
38264;SDS011;24062;47.480;8.768;2023-05-07T00:15:26;5.27;;;2.33;;
38264;SDS011;24062;47.480;8.768;2023-05-07T00:17:53;3.20;;;2.60;;
38264;SDS011;24062;47.480;8.768;2023-05-07T00:20:20;8.60;;;2.10;;
38264;SDS011;24062;47.480;8.768;2023-05-07T00:22:47;3.67;;;2.33;;
38264;SDS011;24062;47.480;8.768;2023-05-07T00:25:14;2.47;;;2.10;;
38264;SDS011;24062;47.480;8.768;2023-05-07T00:27:42;2.63;;;2.43;;
38264;SDS011;24062;47.480;8.768;2023-05-07T00:30:10;4.90;;;2.90;;
38264;SDS011;24062;47.480;8.768;2023-05-07T00:32:37;4.23;;;2.77;;
38264;SDS011;24062;47.480;8.768;2023-05-07T00:35:05;3.10;;;2.70;;
38264;SDS011;24062;47.480;8.768;2023-05-07T00:37:33;4.40;;;2.93;;
38264;SDS011;24062;47.480;8.768;2023-05-07T00:39:59;3.63;;;2.80;;
38264;SDS011;24062;47.480;8.768;2023-05-07T00:42:29;6.33;;;3.20;;
38264;SDS011;24062;47.480;8.768;2023-05-07T00:44:58;4.77;;;2.70;;
38264;SDS011;24062;47.480;8.768;2023-05-07T00:47:25;3.27;;;2.97;;
38264;SDS011;24062;47.480;8.768;2023-05-07T00:49:52;4.87;;;2.90;;
38264;SDS011;24062;47.480;8.768;2023-05-07T00:52:19;6.40;;;3.17;;
38264;SDS011;24062;47.480;8.768;2023-05-07T00:54:51;2.80;;;2.50;;
38264;SDS011;24062;47.480;8.768;2023-05-07T00:57:18;3.70;;;2.20;;
38264;SDS011;24062;47.480;8.768;2023-05-07T00:59:47;3.63;;;2.40;;
38264;SDS011;24062;47.480;8.768;2023-05-07T01:02:16;5.73;;;5.23;;
38264;SDS011;24062;47.480;8.768;2023-05-07T01:04:43;6.40;;;4.30;;
38264;SDS011;24062;47.480;8.768;2023-05-07T01:07:10;6.43;;;4.93;;
38264;SDS011;24062;47.480;8.768;2023-05-07T01:09:37;10.17;;;5.60;;
38264;SDS011;24062;47.480;8.768;2023-05-07T01:12:04;12.20;;;5.57;;
38264;SDS011;24062;47.480;8.768;2023-05-07T01:14:33;10.90;;;6.27;;
38264;SDS011;24062;47.480;8.768;2023-05-07T01:17:00;7.50;;;5.10;;
38264;SDS011;24062;47.480;8.768;2023-05-07T01:19:29;8.73;;;6.07;;
38264;SDS011;24062;47.480;8.768;2023-05-07T01:22:00;7.73;;;6.17;;
38264;SDS011;24062;47.480;8.768;2023-05-07T01:24:31;8.83;;;3.53;;
38264;SDS011;24062;47.480;8.768;2023-05-07T01:26:59;4.10;;;3.70;;
38264;SDS011;24062;47.480;8.768;2023-05-07T01:29:27;13.43;;;5.53;;
38264;SDS011;24062;47.480;8.768;2023-05-07T01:31:54;9.50;;;4.17;;
38264;SDS011;24062;47.480;8.768;2023-05-07T01:34:24;3.10;;;2.80;;
38264;SDS011;24062;47.480;8.768;2023-05-07T01:36:53;2.50;;;2.30;;
38264;SDS011;24062;47.480;8.768;2023-05-07T01:39:23;4.63;;;2.53;;
38264;SDS011;24062;47.480;8.768;2023-05-07T01:41:53;4.57;;;2.10;;
38264;SDS011;24062;47.480;8.768;2023-05-07T01:44:21;3.60;;;2.70;;
38264;SDS011;24062;47.480;8.768;2023-05-07T01:46:49;4.97;;;2.37;;
38264;SDS011;24062;47.480;8.768;2023-05-07T01:49:16;6.30;;;3.93;;
38264;SDS011;24062;47.480;8.768;2023-05-07T01:51:43;6.00;;;3.73;;
38264;SDS011;24062;47.480;8.768;2023-05-07T01:54:11;9.07;;;5.43;;
38264;SDS011;24062;47.480;8.768;2023-05-07T01:56:38;7.60;;;5.20;;
38264;SDS011;24062;47.480;8.768;2023-05-07T01:59:06;6.60;;;4.23;;
38264;SDS011;24062;47.480;8.768;2023-05-07T02:01:33;3.60;;;3.17;;
38264;SDS011;24062;47.480;8.768;2023-05-07T02:04:00;6.30;;;2.30;;
38264;SDS011;24062;47.480;8.768;2023-05-07T02:06:27;2.50;;;2.03;;
38264;SDS011;24062;47.480;8.768;2023-05-07T02:08:54;4.17;;;2.00;;
38264;SDS011;24062;47.480;8.768;2023-05-07T02:11:21;8.40;;;2.00;;
38264;SDS011;24062;47.480;8.768;2023-05-07T02:13:48;2.97;;;2.33;;
38264;SDS011;24062;47.480;8.768;2023-05-07T02:16:16;2.13;;;1.87;;
38264;SDS011;24062;47.480;8.768;2023-05-07T02:18:44;4.20;;;2.10;;
38264;SDS011;24062;47.480;8.768;2023-05-07T02:21:11;7.50;;;2.43;;
38264;SDS011;24062;47.480;8.768;2023-05-07T02:23:38;11.00;;;2.60;;
38264;SDS011;24062;47.480;8.768;2023-05-07T02:26:05;7.33;;;4.80;;
38264;SDS011;24062;47.480;8.768;2023-05-07T02:28:32;5.83;;;4.10;;
38264;SDS011;24062;47.480;8.768;2023-05-07T02:31:00;7.70;;;3.90;;
38264;SDS011;24062;47.480;8.768;2023-05-07T02:33:30;8.77;;;5.57;;
38264;SDS011;24062;47.480;8.768;2023-05-07T02:35:57;6.37;;;3.80;;
38264;SDS011;24062;47.480;8.768;2023-05-07T02:38:31;4.40;;;4.00;;
38264;SDS011;24062;47.480;8.768;2023-05-07T02:40:58;5.20;;;4.67;;
38264;SDS011;24062;47.480;8.768;2023-05-07T02:43:25;8.53;;;2.23;;
38264;SDS011;24062;47.480;8.768;2023-05-07T02:45:59;4.73;;;2.00;;
38264;SDS011;24062;47.480;8.768;2023-05-07T02:48:27;14.90;;;2.30;;
38264;SDS011;24062;47.480;8.768;2023-05-07T02:50:56;2.50;;;2.27;;
38264;SDS011;24062;47.480;8.768;2023-05-07T02:53:23;2.43;;;2.20;;
38264;SDS011;24062;47.480;8.768;2023-05-07T02:55:51;4.03;;;1.93;;
38264;SDS011;24062;47.480;8.768;2023-05-07T02:58:18;2.60;;;2.40;;
38264;SDS011;24062;47.480;8.768;2023-05-07T03:00:45;5.33;;;1.87;;
38264;SDS011;24062;47.480;8.768;2023-05-07T03:03:12;3.60;;;1.70;;
38264;SDS011;24062;47.480;8.768;2023-05-07T03:05:41;2.20;;;1.60;;
38264;SDS011;24062;47.480;8.768;2023-05-07T03:08:08;2.97;;;2.00;;
38264;SDS011;24062;47.480;8.768;2023-05-07T03:10:36;5.63;;;1.87;;
38264;SDS011;24062;47.480;8.768;2023-05-07T03:13:03;4.43;;;2.00;;
38264;SDS011;24062;47.480;8.768;2023-05-07T03:15:30;3.00;;;1.97;;
38264;SDS011;24062;47.480;8.768;2023-05-07T03:17:57;2.50;;;1.93;;
38264;SDS011;24062;47.480;8.768;2023-05-07T03:20:24;2.87;;;1.70;;
38264;SDS011;24062;47.480;8.768;2023-05-07T03:22:52;2.33;;;1.63;;
38264;SDS011;24062;47.480;8.768;2023-05-07T03:25:19;2.20;;;1.57;;
38264;SDS011;24062;47.480;8.768;2023-05-07T03:27:46;2.60;;;2.37;;
38264;SDS011;24062;47.480;8.768;2023-05-07T03:30:13;2.63;;;2.03;;
38264;SDS011;24062;47.480;8.768;2023-05-07T03:32:40;3.50;;;2.00;;
38264;SDS011;24062;47.480;8.768;2023-05-07T03:35:07;3.13;;;2.20;;
38264;SDS011;24062;47.480;8.768;2023-05-07T03:37:34;3.23;;;1.90;;
38264;SDS011;24062;47.480;8.768;2023-05-07T03:40:03;6.33;;;1.90;;
38264;SDS011;24062;47.480;8.768;2023-05-07T03:42:31;3.40;;;2.10;;
38264;SDS011;24062;47.480;8.768;2023-05-07T03:44:58;2.30;;;1.63;;
38264;SDS011;24062;47.480;8.768;2023-05-07T03:47:25;3.23;;;2.10;;
38264;SDS011;24062;47.480;8.768;2023-05-07T03:49:52;4.43;;;1.70;;
38264;SDS011;24062;47.480;8.768;2023-05-07T03:52:19;2.30;;;1.93;;
38264;SDS011;24062;47.480;8.768;2023-05-07T03:54:50;2.20;;;1.83;;
38264;SDS011;24062;47.480;8.768;2023-05-07T03:57:19;2.87;;;2.27;;
38264;SDS011;24062;47.480;8.768;2023-05-07T03:59:46;3.60;;;1.70;;
38264;SDS011;24062;47.480;8.768;2023-05-07T04:02:13;2.03;;;1.80;;
38264;SDS011;24062;47.480;8.768;2023-05-07T04:04:40;6.07;;;2.07;;
38264;SDS011;24062;47.480;8.768;2023-05-07T04:07:07;4.13;;;2.63;;
38264;SDS011;24062;47.480;8.768;2023-05-07T04:09:35;3.70;;;2.07;;
38264;SDS011;24062;47.480;8.768;2023-05-07T04:12:02;1.73;;;1.60;;
38264;SDS011;24062;47.480;8.768;2023-05-07T04:14:30;2.50;;;1.60;;
38264;SDS011;24062;47.480;8.768;2023-05-07T04:16:58;2.70;;;1.67;;
38264;SDS011;24062;47.480;8.768;2023-05-07T04:19:25;3.20;;;1.77;;
38264;SDS011;24062;47.480;8.768;2023-05-07T04:21:52;2.00;;;1.80;;
38264;SDS011;24062;47.480;8.768;2023-05-07T04:24:19;3.10;;;1.70;;
38264;SDS011;24062;47.480;8.768;2023-05-07T04:26:46;1.80;;;1.53;;
38264;SDS011;24062;47.480;8.768;2023-05-07T04:29:13;3.17;;;1.77;;
38264;SDS011;24062;47.480;8.768;2023-05-07T04:31:41;2.37;;;1.40;;
38264;SDS011;24062;47.480;8.768;2023-05-07T04:34:09;6.47;;;2.03;;
38264;SDS011;24062;47.480;8.768;2023-05-07T04:36:37;2.37;;;1.77;;
38264;SDS011;24062;47.480;8.768;2023-05-07T04:39:04;3.20;;;1.60;;
38264;SDS011;24062;47.480;8.768;2023-05-07T04:41:31;2.57;;;1.90;;
38264;SDS011;24062;47.480;8.768;2023-05-07T04:43:58;2.37;;;1.70;;
38264;SDS011;24062;47.480;8.768;2023-05-07T04:46:25;1.60;;;1.50;;
38264;SDS011;24062;47.480;8.768;2023-05-07T04:48:54;6.80;;;2.17;;
38264;SDS011;24062;47.480;8.768;2023-05-07T04:51:21;2.20;;;1.70;;
38264;SDS011;24062;47.480;8.768;2023-05-07T04:53:48;6.77;;;2.10;;
38264;SDS011;24062;47.480;8.768;2023-05-07T04:56:15;2.20;;;1.40;;
38264;SDS011;24062;47.480;8.768;2023-05-07T04:58:42;2.07;;;1.50;;
38264;SDS011;24062;47.480;8.768;2023-05-07T05:01:09;6.03;;;1.70;;
38264;SDS011;24062;47.480;8.768;2023-05-07T05:03:36;3.30;;;1.73;;
38264;SDS011;24062;47.480;8.768;2023-05-07T05:06:05;6.30;;;1.23;;
38264;SDS011;24062;47.480;8.768;2023-05-07T05:08:32;6.10;;;1.80;;
38264;SDS011;24062;47.480;8.768;2023-05-07T05:11:00;1.90;;;1.17;;
38264;SDS011;24062;47.480;8.768;2023-05-07T05:13:27;2.20;;;1.53;;
38264;SDS011;24062;47.480;8.768;2023-05-07T05:15:55;1.57;;;1.10;;
38264;SDS011;24062;47.480;8.768;2023-05-07T05:18:22;4.33;;;1.30;;
38264;SDS011;24062;47.480;8.768;2023-05-07T05:20:49;1.90;;;1.50;;
38264;SDS011;24062;47.480;8.768;2023-05-07T05:23:19;3.80;;;1.40;;
38264;SDS011;24062;47.480;8.768;2023-05-07T05:25:46;1.80;;;1.23;;
38264;SDS011;24062;47.480;8.768;2023-05-07T05:28:13;2.90;;;1.40;;
38264;SDS011;24062;47.480;8.768;2023-05-07T05:30:40;2.10;;;1.33;;
38264;SDS011;24062;47.480;8.768;2023-05-07T05:33:06;2.60;;;1.43;;
38264;SDS011;24062;47.480;8.768;2023-05-07T05:35:33;1.97;;;1.43;;
38264;SDS011;24062;47.480;8.768;2023-05-07T05:38:01;2.00;;;1.27;;
38264;SDS011;24062;47.480;8.768;2023-05-07T05:40:29;3.40;;;1.50;;
38264;SDS011;24062;47.480;8.768;2023-05-07T05:42:57;1.93;;;1.60;;
38264;SDS011;24062;47.480;8.768;2023-05-07T05:45:24;1.90;;;1.30;;
38264;SDS011;24062;47.480;8.768;2023-05-07T05:47:50;2.50;;;1.30;;
38264;SDS011;24062;47.480;8.768;2023-05-07T05:50:18;2.43;;;1.40;;
38264;SDS011;24062;47.480;8.768;2023-05-07T05:52:45;3.60;;;1.70;;
38264;SDS011;24062;47.480;8.768;2023-05-07T05:55:11;1.90;;;1.33;;
38264;SDS011;24062;47.480;8.768;2023-05-07T05:57:40;2.73;;;1.43;;
38264;SDS011;24062;47.480;8.768;2023-05-07T06:00:08;2.73;;;1.40;;
38264;SDS011;24062;47.480;8.768;2023-05-07T06:02:36;1.77;;;1.07;;
38264;SDS011;24062;47.480;8.768;2023-05-07T06:05:03;1.67;;;1.17;;
38264;SDS011;24062;47.480;8.768;2023-05-07T06:07:30;2.50;;;1.30;;
38264;SDS011;24062;47.480;8.768;2023-05-07T06:09:57;6.43;;;1.47;;
38264;SDS011;24062;47.480;8.768;2023-05-07T06:12:24;8.10;;;1.27;;
38264;SDS011;24062;47.480;8.768;2023-05-07T06:14:53;2.07;;;1.30;;
38264;SDS011;24062;47.480;8.768;2023-05-07T06:17:19;4.90;;;0.90;;
38264;SDS011;24062;47.480;8.768;2023-05-07T06:19:46;2.07;;;1.30;;
38264;SDS011;24062;47.480;8.768;2023-05-07T06:22:13;2.00;;;1.30;;
38264;SDS011;24062;47.480;8.768;2023-05-07T06:24:40;1.90;;;1.20;;
38264;SDS011;24062;47.480;8.768;2023-05-07T06:27:07;1.70;;;1.00;;
38264;SDS011;24062;47.480;8.768;2023-05-07T06:29:34;1.97;;;1.03;;
38264;SDS011;24062;47.480;8.768;2023-05-07T06:32:09;1.90;;;1.37;;
38264;SDS011;24062;47.480;8.768;2023-05-07T06:34:37;4.33;;;1.37;;
38264;SDS011;24062;47.480;8.768;2023-05-07T06:37:04;2.50;;;1.70;;
38264;SDS011;24062;47.480;8.768;2023-05-07T06:39:31;10.20;;;1.30;;
38264;SDS011;24062;47.480;8.768;2023-05-07T06:41:59;3.43;;;1.87;;
38264;SDS011;24062;47.480;8.768;2023-05-07T06:44:26;4.10;;;1.40;;
38264;SDS011;24062;47.480;8.768;2023-05-07T06:46:53;2.63;;;1.50;;
38264;SDS011;24062;47.480;8.768;2023-05-07T06:49:21;1.70;;;1.30;;
38264;SDS011;24062;47.480;8.768;2023-05-07T06:51:49;3.33;;;1.57;;
38264;SDS011;24062;47.480;8.768;2023-05-07T06:54:16;2.73;;;1.90;;
38264;SDS011;24062;47.480;8.768;2023-05-07T06:56:43;2.40;;;1.90;;
38264;SDS011;24062;47.480;8.768;2023-05-07T06:59:09;2.40;;;1.90;;
38264;SDS011;24062;47.480;8.768;2023-05-07T07:01:36;3.23;;;2.63;;
38264;SDS011;24062;47.480;8.768;2023-05-07T07:04:03;3.00;;;1.90;;
38264;SDS011;24062;47.480;8.768;2023-05-07T07:06:32;2.57;;;2.37;;
38264;SDS011;24062;47.480;8.768;2023-05-07T07:08:59;2.03;;;1.47;;
38264;SDS011;24062;47.480;8.768;2023-05-07T07:11:26;3.50;;;2.00;;
38264;SDS011;24062;47.480;8.768;2023-05-07T07:13:53;2.50;;;2.10;;
38264;SDS011;24062;47.480;8.768;2023-05-07T07:16:20;2.57;;;1.70;;
38264;SDS011;24062;47.480;8.768;2023-05-07T07:18:47;6.73;;;1.10;;
38264;SDS011;24062;47.480;8.768;2023-05-07T07:21:14;3.70;;;1.43;;
38264;SDS011;24062;47.480;8.768;2023-05-07T07:23:42;4.93;;;1.30;;
38264;SDS011;24062;47.480;8.768;2023-05-07T07:26:09;1.80;;;1.20;;
38264;SDS011;24062;47.480;8.768;2023-05-07T07:28:41;2.00;;;1.47;;
38264;SDS011;24062;47.480;8.768;2023-05-07T07:31:09;3.10;;;1.20;;
38264;SDS011;24062;47.480;8.768;2023-05-07T07:33:36;1.93;;;1.17;;
38264;SDS011;24062;47.480;8.768;2023-05-07T07:36:04;4.60;;;1.30;;
38264;SDS011;24062;47.480;8.768;2023-05-07T07:38:32;2.90;;;1.57;;
38264;SDS011;24062;47.480;8.768;2023-05-07T07:41:00;1.67;;;1.10;;
38264;SDS011;24062;47.480;8.768;2023-05-07T07:43:28;2.00;;;1.60;;
38264;SDS011;24062;47.480;8.768;2023-05-07T07:45:55;6.43;;;1.40;;
38264;SDS011;24062;47.480;8.768;2023-05-07T07:48:22;2.00;;;1.40;;
38264;SDS011;24062;47.480;8.768;2023-05-07T07:50:49;2.53;;;1.30;;
38264;SDS011;24062;47.480;8.768;2023-05-07T07:53:16;3.20;;;2.03;;
38264;SDS011;24062;47.480;8.768;2023-05-07T07:55:43;2.23;;;1.70;;
38264;SDS011;24062;47.480;8.768;2023-05-07T07:58:12;2.80;;;1.23;;
38264;SDS011;24062;47.480;8.768;2023-05-07T08:00:39;1.90;;;1.23;;
38264;SDS011;24062;47.480;8.768;2023-05-07T08:03:06;3.20;;;1.37;;
38264;SDS011;24062;47.480;8.768;2023-05-07T08:05:35;3.50;;;1.20;;
38264;SDS011;24062;47.480;8.768;2023-05-07T08:08:03;2.47;;;1.20;;
38264;SDS011;24062;47.480;8.768;2023-05-07T08:10:31;2.43;;;1.40;;
38264;SDS011;24062;47.480;8.768;2023-05-07T08:12:59;2.07;;;1.30;;
38264;SDS011;24062;47.480;8.768;2023-05-07T08:15:29;2.93;;;1.10;;
38264;SDS011;24062;47.480;8.768;2023-05-07T08:17:57;2.33;;;1.37;;
38264;SDS011;24062;47.480;8.768;2023-05-07T08:20:25;2.00;;;1.17;;
38264;SDS011;24062;47.480;8.768;2023-05-07T08:22:52;3.43;;;1.10;;
38264;SDS011;24062;47.480;8.768;2023-05-07T08:25:19;2.50;;;1.17;;
38264;SDS011;24062;47.480;8.768;2023-05-07T08:27:45;3.00;;;1.20;;
38264;SDS011;24062;47.480;8.768;2023-05-07T08:30:13;1.60;;;0.93;;
38264;SDS011;24062;47.480;8.768;2023-05-07T08:32:42;3.07;;;0.70;;
38264;SDS011;24062;47.480;8.768;2023-05-07T08:35:09;2.80;;;1.20;;
38264;SDS011;24062;47.480;8.768;2023-05-07T08:37:35;1.60;;;0.90;;
38264;SDS011;24062;47.480;8.768;2023-05-07T08:40:03;2.67;;;0.90;;
38264;SDS011;24062;47.480;8.768;2023-05-07T08:42:31;1.70;;;1.20;;
38264;SDS011;24062;47.480;8.768;2023-05-07T08:45:01;2.23;;;1.13;;
38264;SDS011;24062;47.480;8.768;2023-05-07T08:47:34;3.80;;;0.90;;
38264;SDS011;24062;47.480;8.768;2023-05-07T08:50:10;1.60;;;1.00;;
38264;SDS011;24062;47.480;8.768;2023-05-07T08:52:37;2.37;;;1.10;;
38264;SDS011;24062;47.480;8.768;2023-05-07T08:55:05;3.20;;;0.97;;
38264;SDS011;24062;47.480;8.768;2023-05-07T08:57:33;2.20;;;1.30;;
38264;SDS011;24062;47.480;8.768;2023-05-07T09:00:01;1.80;;;1.40;;
38264;SDS011;24062;47.480;8.768;2023-05-07T09:02:28;1.77;;;1.23;;
38264;SDS011;24062;47.480;8.768;2023-05-07T09:04:55;3.10;;;0.90;;
38264;SDS011;24062;47.480;8.768;2023-05-07T09:07:24;3.47;;;1.67;;
38264;SDS011;24062;47.480;8.768;2023-05-07T09:09:52;1.83;;;1.20;;
38264;SDS011;24062;47.480;8.768;2023-05-07T09:12:20;2.10;;;1.40;;
38264;SDS011;24062;47.480;8.768;2023-05-07T09:14:48;3.20;;;1.43;;
38264;SDS011;24062;47.480;8.768;2023-05-07T09:17:15;2.23;;;1.10;;
38264;SDS011;24062;47.480;8.768;2023-05-07T09:19:43;3.27;;;1.50;;
38264;SDS011;24062;47.480;8.768;2023-05-07T09:22:11;2.33;;;1.47;;
38264;SDS011;24062;47.480;8.768;2023-05-07T09:24:40;1.93;;;1.17;;
38264;SDS011;24062;47.480;8.768;2023-05-07T09:27:07;3.07;;;1.50;;
38264;SDS011;24062;47.480;8.768;2023-05-07T09:29:36;2.63;;;1.50;;
38264;SDS011;24062;47.480;8.768;2023-05-07T09:32:03;3.30;;;1.27;;
38264;SDS011;24062;47.480;8.768;2023-05-07T09:34:32;2.23;;;1.70;;
38264;SDS011;24062;47.480;8.768;2023-05-07T09:36:59;2.20;;;1.70;;
38264;SDS011;24062;47.480;8.768;2023-05-07T09:39:28;3.77;;;1.63;;
38264;SDS011;24062;47.480;8.768;2023-05-07T09:42:06;2.70;;;1.77;;
38264;SDS011;24062;47.480;8.768;2023-05-07T09:44:34;1.90;;;1.30;;
38264;SDS011;24062;47.480;8.768;2023-05-07T09:47:01;2.97;;;1.60;;
38264;SDS011;24062;47.480;8.768;2023-05-07T09:49:33;5.33;;;1.80;;
38264;SDS011;24062;47.480;8.768;2023-05-07T09:52:01;5.50;;;2.00;;
38264;SDS011;24062;47.480;8.768;2023-05-07T09:54:31;3.03;;;2.07;;
38264;SDS011;24062;47.480;8.768;2023-05-07T09:57:00;3.13;;;1.53;;
38264;SDS011;24062;47.480;8.768;2023-05-07T09:59:28;2.90;;;1.83;;
38264;SDS011;24062;47.480;8.768;2023-05-07T10:01:57;2.60;;;1.80;;
38264;SDS011;24062;47.480;8.768;2023-05-07T10:04:25;3.00;;;1.70;;
38264;SDS011;24062;47.480;8.768;2023-05-07T10:06:52;4.63;;;1.60;;
38264;SDS011;24062;47.480;8.768;2023-05-07T10:09:20;3.47;;;1.87;;
38264;SDS011;24062;47.480;8.768;2023-05-07T10:11:49;2.83;;;1.57;;
38264;SDS011;24062;47.480;8.768;2023-05-07T10:14:17;5.80;;;1.70;;
38264;SDS011;24062;47.480;8.768;2023-05-07T10:16:47;2.00;;;1.30;;
38264;SDS011;24062;47.480;8.768;2023-05-07T10:19:14;2.47;;;1.57;;
38264;SDS011;24062;47.480;8.768;2023-05-07T10:21:44;3.17;;;1.20;;
38264;SDS011;24062;47.480;8.768;2023-05-07T10:24:22;2.10;;;1.47;;
38264;SDS011;24062;47.480;8.768;2023-05-07T10:26:53;5.13;;;1.50;;
38264;SDS011;24062;47.480;8.768;2023-05-07T10:29:28;2.53;;;1.60;;
38264;SDS011;24062;47.480;8.768;2023-05-07T10:32:04;3.27;;;1.90;;
38264;SDS011;24062;47.480;8.768;2023-05-07T10:34:39;2.37;;;1.77;;
38264;SDS011;24062;47.480;8.768;2023-05-07T10:37:09;2.40;;;1.70;;
38264;SDS011;24062;47.480;8.768;2023-05-07T10:39:37;3.20;;;1.60;;
38264;SDS011;24062;47.480;8.768;2023-05-07T10:42:08;2.23;;;1.50;;
38264;SDS011;24062;47.480;8.768;2023-05-07T10:44:36;4.27;;;1.97;;
38264;SDS011;24062;47.480;8.768;2023-05-07T10:47:04;2.67;;;1.80;;
38264;SDS011;24062;47.480;8.768;2023-05-07T10:49:34;2.73;;;1.37;;
38264;SDS011;24062;47.480;8.768;2023-05-07T10:52:10;3.93;;;3.40;;
38264;SDS011;24062;47.480;8.768;2023-05-07T10:54:38;3.40;;;1.80;;
38264;SDS011;24062;47.480;8.768;2023-05-07T11:00:02;2.05;;;1.52;;
38264;SDS011;24062;47.480;8.768;2023-05-07T11:05:33;3.75;;;1.95;;
38264;SDS011;24062;47.480;8.768;2023-05-07T11:08:01;4.47;;;1.75;;
38264;SDS011;24062;47.480;8.768;2023-05-07T11:10:48;3.17;;;1.90;;
38264;SDS011;24062;47.480;8.768;2023-05-07T11:13:16;2.67;;;2.13;;
38264;SDS011;24062;47.480;8.768;2023-05-07T11:15:45;4.15;;;2.50;;
38264;SDS011;24062;47.480;8.768;2023-05-07T11:18:14;3.08;;;2.00;;
38264;SDS011;24062;47.480;8.768;2023-05-07T11:20:52;2.22;;;1.30;;
38264;SDS011;24062;47.480;8.768;2023-05-07T11:26:25;1.80;;;1.70;;
38264;SDS011;24062;47.480;8.768;2023-05-07T11:28:53;12.10;;;2.08;;
38264;SDS011;24062;47.480;8.768;2023-05-07T11:31:23;2.20;;;2.00;;
38264;SDS011;24062;47.480;8.768;2023-05-07T11:33:51;3.72;;;1.45;;
38264;SDS011;24062;47.480;8.768;2023-05-07T11:36:19;3.33;;;1.55;;
38264;SDS011;24062;47.480;8.768;2023-05-07T11:38:47;3.67;;;1.55;;
38264;SDS011;24062;47.480;8.768;2023-05-07T11:41:15;1.92;;;1.52;;
38264;SDS011;24062;47.480;8.768;2023-05-07T11:43:54;2.20;;;1.70;;
38264;SDS011;24062;47.480;8.768;2023-05-07T11:46:23;2.20;;;1.60;;
38264;SDS011;24062;47.480;8.768;2023-05-07T11:48:51;2.53;;;1.60;;
38264;SDS011;24062;47.480;8.768;2023-05-07T11:51:18;2.10;;;1.70;;
38264;SDS011;24062;47.480;8.768;2023-05-07T11:53:46;2.13;;;1.70;;
38264;SDS011;24062;47.480;8.768;2023-05-07T11:56:13;2.55;;;1.58;;
38264;SDS011;24062;47.480;8.768;2023-05-07T11:58:42;3.80;;;1.67;;
38264;SDS011;24062;47.480;8.768;2023-05-07T12:01:10;2.88;;;2.13;;
38264;SDS011;24062;47.480;8.768;2023-05-07T12:03:41;3.25;;;2.05;;
38264;SDS011;24062;47.480;8.768;2023-05-07T12:06:10;2.20;;;1.52;;
38264;SDS011;24062;47.480;8.768;2023-05-07T12:08:38;2.88;;;1.77;;
38264;SDS011;24062;47.480;8.768;2023-05-07T12:11:09;2.40;;;1.77;;
38264;SDS011;24062;47.480;8.768;2023-05-07T12:13:38;2.72;;;1.90;;
38264;SDS011;24062;47.480;8.768;2023-05-07T12:16:06;2.80;;;1.83;;
38264;SDS011;24062;47.480;8.768;2023-05-07T12:18:34;4.38;;;1.67;;
38264;SDS011;24062;47.480;8.768;2023-05-07T12:21:05;3.05;;;2.03;;
38264;SDS011;24062;47.480;8.768;2023-05-07T12:23:33;3.33;;;1.85;;
38264;SDS011;24062;47.480;8.768;2023-05-07T12:26:02;2.45;;;2.10;;
38264;SDS011;24062;47.480;8.768;2023-05-07T12:28:29;3.67;;;2.58;;
38264;SDS011;24062;47.480;8.768;2023-05-07T12:30:56;2.85;;;2.55;;
38264;SDS011;24062;47.480;8.768;2023-05-07T12:33:24;3.15;;;1.95;;
38264;SDS011;24062;47.480;8.768;2023-05-07T12:35:54;3.60;;;2.08;;
38264;SDS011;24062;47.480;8.768;2023-05-07T12:38:23;6.25;;;2.38;;
38264;SDS011;24062;47.480;8.768;2023-05-07T12:40:50;2.58;;;2.10;;
38264;SDS011;24062;47.480;8.768;2023-05-07T12:43:20;3.33;;;2.58;;
38264;SDS011;24062;47.480;8.768;2023-05-07T12:45:48;4.13;;;2.25;;
38264;SDS011;24062;47.480;8.768;2023-05-07T12:48:16;2.95;;;2.22;;
38264;SDS011;24062;47.480;8.768;2023-05-07T12:50:45;4.88;;;2.50;;
38264;SDS011;24062;47.480;8.768;2023-05-07T12:53:15;4.65;;;2.28;;
38264;SDS011;24062;47.480;8.768;2023-05-07T12:55:43;2.15;;;1.67;;
38264;SDS011;24062;47.480;8.768;2023-05-07T12:58:15;5.70;;;2.67;;
38264;SDS011;24062;47.480;8.768;2023-05-07T13:00:43;2.13;;;1.75;;
38264;SDS011;24062;47.480;8.768;2023-05-07T13:03:11;3.97;;;2.28;;
38264;SDS011;24062;47.480;8.768;2023-05-07T13:05:38;4.30;;;2.35;;
38264;SDS011;24062;47.480;8.768;2023-05-07T13:08:05;4.78;;;1.80;;
38264;SDS011;24062;47.480;8.768;2023-05-07T13:10:34;2.05;;;1.60;;
38264;SDS011;24062;47.480;8.768;2023-05-07T13:13:02;4.88;;;1.85;;
38264;SDS011;24062;47.480;8.768;2023-05-07T13:15:29;3.55;;;2.17;;
38264;SDS011;24062;47.480;8.768;2023-05-07T13:17:56;2.70;;;2.15;;
38264;SDS011;24062;47.480;8.768;2023-05-07T13:20:23;3.83;;;1.88;;
38264;SDS011;24062;47.480;8.768;2023-05-07T13:22:50;4.07;;;2.30;;
38264;SDS011;24062;47.480;8.768;2023-05-07T13:25:17;4.60;;;1.88;;
38264;SDS011;24062;47.480;8.768;2023-05-07T13:27:44;3.08;;;1.65;;
38264;SDS011;24062;47.480;8.768;2023-05-07T13:30:13;2.40;;;1.77;;
38264;SDS011;24062;47.480;8.768;2023-05-07T13:32:40;3.58;;;1.70;;
38264;SDS011;24062;47.480;8.768;2023-05-07T13:35:07;6.78;;;1.50;;
38264;SDS011;24062;47.480;8.768;2023-05-07T13:37:34;4.28;;;2.13;;
38264;SDS011;24062;47.480;8.768;2023-05-07T13:40:01;2.60;;;2.10;;
38264;SDS011;24062;47.480;8.768;2023-05-07T13:42:29;3.00;;;1.70;;
38264;SDS011;24062;47.480;8.768;2023-05-07T13:44:56;5.55;;;2.10;;
38264;SDS011;24062;47.480;8.768;2023-05-07T13:47:24;4.78;;;2.22;;
38264;SDS011;24062;47.480;8.768;2023-05-07T13:49:51;4.75;;;2.28;;
38264;SDS011;24062;47.480;8.768;2023-05-07T13:52:18;2.78;;;2.05;;
38264;SDS011;24062;47.480;8.768;2023-05-07T13:54:46;2.63;;;2.17;;
38264;SDS011;24062;47.480;8.768;2023-05-07T13:57:13;4.78;;;2.08;;
38264;SDS011;24062;47.480;8.768;2023-05-07T13:59:40;6.78;;;2.13;;
38264;SDS011;24062;47.480;8.768;2023-05-07T14:02:07;2.50;;;1.92;;
38264;SDS011;24062;47.480;8.768;2023-05-07T14:04:35;2.38;;;1.58;;
38264;SDS011;24062;47.480;8.768;2023-05-07T14:07:03;2.53;;;1.73;;
38264;SDS011;24062;47.480;8.768;2023-05-07T14:09:30;2.42;;;1.70;;
38264;SDS011;24062;47.480;8.768;2023-05-07T14:11:57;2.67;;;1.45;;
38264;SDS011;24062;47.480;8.768;2023-05-07T14:14:25;4.82;;;2.38;;
38264;SDS011;24062;47.480;8.768;2023-05-07T14:16:52;5.50;;;1.80;;
38264;SDS011;24062;47.480;8.768;2023-05-07T14:19:19;2.13;;;1.75;;
38264;SDS011;24062;47.480;8.768;2023-05-07T14:21:49;2.50;;;1.92;;
38264;SDS011;24062;47.480;8.768;2023-05-07T14:24:16;3.78;;;1.67;;
38264;SDS011;24062;47.480;8.768;2023-05-07T14:26:42;2.20;;;1.50;;
38264;SDS011;24062;47.480;8.768;2023-05-07T14:29:10;4.82;;;1.58;;
38264;SDS011;24062;47.480;8.768;2023-05-07T14:31:37;2.80;;;1.67;;
38264;SDS011;24062;47.480;8.768;2023-05-07T14:34:04;3.53;;;1.80;;
38264;SDS011;24062;47.480;8.768;2023-05-07T14:36:31;2.90;;;1.40;;
38264;SDS011;24062;47.480;8.768;2023-05-07T14:39:00;3.90;;;1.58;;
38264;SDS011;24062;47.480;8.768;2023-05-07T14:41:27;2.22;;;1.65;;
38264;SDS011;24062;47.480;8.768;2023-05-07T14:43:54;2.42;;;1.90;;
38264;SDS011;24062;47.480;8.768;2023-05-07T14:46:21;2.93;;;2.03;;
38264;SDS011;24062;47.480;8.768;2023-05-07T14:48:49;2.97;;;1.67;;
38264;SDS011;24062;47.480;8.768;2023-05-07T14:51:15;5.07;;;2.60;;
38264;SDS011;24062;47.480;8.768;2023-05-07T14:53:42;2.77;;;1.97;;
38264;SDS011;24062;47.480;8.768;2023-05-07T14:56:11;2.67;;;2.20;;
38264;SDS011;24062;47.480;8.768;2023-05-07T14:58:38;7.83;;;2.03;;
38264;SDS011;24062;47.480;8.768;2023-05-07T15:01:05;5.13;;;2.00;;